createdAt,value
2018-03-29T00:00:56.904Z,11.50
2018-03-29T00:01:58.333Z,11.50
2018-03-29T00:03:00.105Z,11.50
2018-03-29T00:04:01.558Z,11.50
2018-03-29T00:05:02.995Z,11.50
2018-03-29T00:06:05.173Z,11.50
2018-03-29T00:07:06.590Z,11.50
2018-03-29T00:08:08.011Z,11.50
2018-03-29T00:09:09.419Z,11.50
2018-03-29T00:10:11.547Z,11.50
2018-03-29T00:11:13.335Z,11.50
2018-03-29T00:12:15.144Z,11.50
2018-03-29T00:13:16.529Z,11.50
2018-03-29T00:14:17.934Z,11.50
2018-03-29T00:15:19.334Z,11.50
2018-03-29T00:17:23.908Z,11.50
2018-03-29T00:18:26.051Z,11.50
2018-03-29T00:19:27.458Z,11.50
2018-03-29T00:20:29.611Z,11.50
2018-03-29T00:21:31.022Z,11.50
2018-03-29T00:22:32.443Z,11.50
2018-03-29T00:23:34.606Z,11.50
2018-03-29T00:25:39.180Z,11.60
2018-03-29T00:26:40.587Z,11.60
2018-03-29T00:27:43.808Z,11.60
2018-03-29T00:28:45.214Z,11.60
2018-03-29T00:29:46.640Z,11.60
2018-03-29T00:30:48.048Z,11.60
2018-03-29T00:31:49.438Z,11.60
2018-03-29T00:32:51.038Z,11.70
2018-03-29T00:34:49.419Z,11.60
2018-03-29T00:35:50.830Z,11.60
2018-03-29T00:36:52.282Z,11.50
2018-03-29T00:37:53.698Z,11.60
2018-03-29T00:38:55.141Z,11.50
2018-03-29T00:39:57.782Z,11.60
2018-03-29T00:40:59.190Z,11.60
2018-03-29T00:42:00.970Z,11.60
2018-03-29T00:43:02.390Z,11.60
2018-03-29T00:44:04.562Z,11.60
2018-03-29T00:45:05.978Z,11.60
2018-03-29T00:46:07.448Z,11.60
2018-03-29T00:47:09.622Z,11.60
2018-03-29T00:48:11.368Z,11.60
2018-03-29T00:49:12.814Z,11.50
2018-03-29T00:50:14.278Z,11.50
2018-03-29T00:51:16.410Z,11.50
2018-03-29T00:52:17.830Z,11.50
2018-03-29T00:53:37.654Z,11.50
2018-03-29T00:54:39.055Z,11.50
2018-03-29T00:55:40.458Z,11.50
2018-03-29T00:56:41.870Z,11.50
2018-03-29T00:57:43.296Z,11.50
2018-03-29T00:58:45.002Z,11.50
2018-03-29T00:59:46.413Z,11.50
2018-03-29T01:00:47.814Z,11.50
2018-03-29T01:01:49.238Z,11.40
2018-03-29T01:02:50.646Z,11.50
2018-03-29T01:03:52.895Z,11.50
2018-03-29T01:04:54.296Z,11.50
2018-03-29T01:05:55.726Z,11.40
2018-03-29T01:06:57.133Z,11.40
2018-03-29T01:07:58.562Z,11.40
2018-03-29T01:09:01.483Z,11.40
2018-03-29T01:10:02.932Z,11.40
2018-03-29T01:11:04.357Z,11.40
2018-03-29T01:12:06.505Z,11.50
2018-03-29T01:13:07.978Z,11.50
2018-03-29T01:14:09.403Z,11.50
2018-03-29T01:15:10.830Z,11.50
2018-03-29T01:16:12.972Z,11.40
2018-03-29T01:17:14.414Z,11.30
2018-03-29T01:18:15.825Z,11.40
2018-03-29T01:19:17.685Z,11.40
2018-03-29T01:20:19.082Z,11.40
2018-03-29T01:21:20.520Z,11.40
2018-03-29T01:22:21.919Z,11.40
2018-03-29T01:23:24.060Z,11.40
2018-03-29T01:25:28.626Z,11.40
2018-03-29T01:26:30.044Z,11.40
2018-03-29T01:27:31.469Z,11.40
2018-03-29T01:28:32.868Z,11.40
2018-03-29T01:29:35.036Z,11.40
2018-03-29T01:31:39.566Z,11.40
2018-03-29T01:32:42.476Z,11.30
2018-03-29T01:33:43.930Z,11.40
2018-03-29T01:34:45.334Z,11.40
2018-03-29T01:35:46.737Z,11.40
2018-03-29T01:36:48.187Z,11.40
2018-03-29T01:37:49.588Z,11.40
2018-03-29T01:38:50.996Z,11.30
2018-03-29T01:39:52.434Z,11.30
2018-03-29T01:40:53.855Z,11.30
2018-03-29T01:41:56.038Z,11.30
2018-03-29T01:42:57.450Z,11.30
2018-03-29T01:43:58.837Z,11.30
2018-03-29T01:45:01.341Z,11.40
2018-03-29T01:46:02.802Z,11.40
2018-03-29T01:47:04.208Z,11.30
2018-03-29T01:48:06.367Z,11.40
2018-03-29T01:49:08.531Z,11.40
2018-03-29T01:50:10.986Z,11.30
2018-03-29T01:51:12.390Z,11.30
2018-03-29T01:52:13.801Z,11.30
2018-03-29T01:53:15.208Z,11.30
2018-03-29T01:54:17.360Z,11.30
2018-03-29T01:55:19.087Z,11.30
2018-03-29T01:56:21.246Z,11.30
2018-03-29T01:57:22.710Z,11.20
2018-03-29T01:58:24.855Z,11.30
2018-03-29T01:59:26.266Z,11.30
2018-03-29T02:00:27.690Z,11.30
2018-03-29T02:01:29.079Z,11.30
2018-03-29T02:02:30.494Z,11.30
2018-03-29T02:03:31.934Z,11.30
2018-03-29T02:04:34.078Z,11.30
2018-03-29T02:05:35.502Z,11.30
2018-03-29T02:06:36.918Z,11.40
2018-03-29T02:07:38.361Z,11.40
2018-03-29T02:08:41.348Z,11.30
2018-03-29T02:09:43.539Z,11.30
2018-03-29T02:10:44.963Z,11.20
2018-03-29T02:11:47.477Z,11.30
2018-03-29T02:12:48.883Z,11.20
2018-03-29T02:13:51.058Z,11.30
2018-03-29T02:14:53.190Z,11.30
2018-03-29T02:15:54.598Z,11.30
2018-03-29T02:16:56.054Z,11.30
2018-03-29T02:17:57.454Z,11.30
2018-03-29T02:18:58.887Z,11.30
2018-03-29T02:20:00.289Z,11.30
2018-03-29T02:21:01.707Z,11.30
2018-03-29T02:22:03.110Z,11.30
2018-03-29T02:23:04.546Z,11.30
2018-03-29T02:24:06.010Z,11.40
2018-03-29T02:25:07.749Z,11.40
2018-03-29T02:26:09.221Z,11.40
2018-03-29T02:27:10.662Z,11.40
2018-03-29T02:28:12.029Z,11.40
2018-03-29T02:30:17.349Z,11.40
2018-03-29T02:31:19.187Z,11.40
2018-03-29T02:32:20.702Z,11.40
2018-03-29T02:33:22.103Z,11.40
2018-03-29T02:34:24.243Z,11.40
2018-03-29T02:35:25.638Z,11.40
2018-03-29T02:36:27.043Z,11.40
2018-03-29T02:37:28.445Z,11.40
2018-03-29T02:38:29.865Z,11.40
2018-03-29T02:39:32.380Z,11.30
2018-03-29T02:40:33.782Z,11.30
2018-03-29T02:41:35.515Z,11.30
2018-03-29T02:42:36.917Z,11.30
2018-03-29T02:43:38.347Z,11.30
2018-03-29T02:44:39.742Z,11.30
2018-03-29T02:45:41.205Z,11.40
2018-03-29T02:46:42.625Z,11.40
2018-03-29T02:47:44.047Z,11.30
2018-03-29T02:48:45.446Z,11.30
2018-03-29T02:49:46.875Z,11.30
2018-03-29T02:50:48.287Z,11.30
2018-03-29T02:51:49.714Z,11.30
2018-03-29T02:52:51.128Z,11.30
2018-03-29T02:53:52.539Z,11.30
2018-03-29T02:54:54.688Z,11.20
2018-03-29T02:55:56.075Z,11.20
2018-03-29T02:56:58.620Z,11.20
2018-03-29T02:58:00.043Z,11.20
2018-03-29T02:59:01.448Z,11.20
2018-03-29T03:00:02.915Z,11.20
2018-03-29T03:01:05.844Z,11.20
2018-03-29T03:02:08.097Z,11.10
2018-03-29T03:03:09.540Z,11.20
2018-03-29T03:04:10.994Z,11.10
2018-03-29T03:05:12.441Z,11.10
2018-03-29T03:06:13.888Z,11.10
2018-03-29T03:07:15.366Z,11.10
2018-03-29T03:08:16.864Z,11.10
2018-03-29T03:09:18.303Z,11.10
2018-03-29T03:10:19.750Z,11.00
2018-03-29T03:11:21.238Z,11.00
2018-03-29T03:12:51.068Z,11.00
2018-03-29T03:13:52.517Z,11.00
2018-03-29T03:14:54.033Z,11.10
2018-03-29T03:15:55.482Z,11.10
2018-03-29T03:16:56.935Z,11.20
2018-03-29T03:17:58.416Z,11.20
2018-03-29T03:18:59.869Z,11.10
2018-03-29T03:20:01.354Z,11.10
2018-03-29T03:21:02.921Z,11.10
2018-03-29T03:22:04.402Z,11.10
2018-03-29T03:23:07.654Z,11.10
2018-03-29T03:24:09.102Z,11.10
2018-03-29T03:25:10.587Z,11.20
2018-03-29T03:26:12.075Z,11.10
2018-03-29T03:27:13.558Z,11.20
2018-03-29T03:28:15.306Z,11.20
2018-03-29T03:29:16.776Z,11.10
2018-03-29T03:30:18.237Z,11.10
2018-03-29T03:31:19.830Z,11.10
2018-03-29T03:32:21.317Z,11.00
2018-03-29T03:33:22.786Z,11.00
2018-03-29T03:34:24.246Z,11.00
2018-03-29T03:35:25.737Z,11.00
2018-03-29T03:36:27.950Z,11.00
2018-03-29T03:37:29.385Z,11.00
2018-03-29T03:38:30.866Z,11.00
2018-03-29T03:39:32.329Z,11.00
2018-03-29T03:40:33.768Z,11.00
2018-03-29T03:41:35.310Z,11.00
2018-03-29T03:42:36.776Z,11.00
2018-03-29T03:43:38.579Z,11.00
2018-03-29T03:45:43.235Z,11.00
2018-03-29T03:46:44.754Z,11.00
2018-03-29T03:47:46.261Z,11.00
2018-03-29T03:48:48.492Z,11.10
2018-03-29T03:49:50.704Z,11.10
2018-03-29T03:50:52.196Z,11.10
2018-03-29T03:51:53.676Z,11.10
2018-03-29T03:52:55.214Z,11.10
2018-03-29T03:53:57.458Z,11.00
2018-03-29T03:54:58.927Z,11.00
2018-03-29T03:56:00.459Z,11.00
2018-03-29T03:57:01.930Z,11.00
2018-03-29T03:58:03.435Z,11.00
2018-03-29T03:59:05.280Z,11.00
2018-03-29T04:00:07.546Z,11.10
2018-03-29T04:01:09.741Z,11.00
2018-03-29T04:02:11.212Z,11.00
2018-03-29T04:03:12.752Z,11.00
2018-03-29T04:04:14.592Z,10.90
2018-03-29T04:05:16.070Z,10.90
2018-03-29T04:07:02.402Z,10.90
2018-03-29T04:08:03.910Z,10.90
2018-03-29T04:09:05.396Z,10.90
2018-03-29T04:10:07.663Z,10.80
2018-03-29T04:11:09.126Z,10.80
2018-03-29T04:12:10.658Z,10.80
2018-03-29T04:14:28.818Z,10.70
2018-03-29T04:15:30.307Z,10.70
2018-03-29T04:16:33.236Z,10.70
2018-03-29T04:17:34.690Z,10.70
2018-03-29T04:18:36.176Z,10.70
2018-03-29T04:20:31.263Z,10.70
2018-03-29T04:21:32.751Z,10.70
2018-03-29T04:22:34.248Z,10.70
2018-03-29T04:24:40.212Z,10.60
2018-03-29T04:25:42.770Z,10.60
2018-03-29T04:26:44.276Z,10.60
2018-03-29T04:27:45.861Z,10.60
2018-03-29T04:28:47.484Z,10.60
2018-03-29T04:29:49.107Z,10.60
2018-03-29T04:30:51.504Z,10.50
2018-03-29T04:31:53.166Z,10.50
2018-03-29T04:32:54.844Z,10.50
2018-03-29T04:33:56.486Z,10.50
2018-03-29T04:34:58.112Z,10.50
2018-03-29T04:35:59.734Z,10.50
2018-03-29T04:37:01.293Z,10.50
2018-03-29T04:38:02.908Z,10.50
2018-03-29T04:39:07.814Z,10.50
2018-03-29T04:40:09.443Z,10.50
2018-03-29T04:41:12.638Z,10.50
2018-03-29T04:42:15.741Z,10.50
2018-03-29T04:43:18.078Z,10.50
2018-03-29T04:44:19.724Z,10.50
2018-03-29T04:45:21.331Z,10.50
2018-03-29T04:46:23.312Z,10.50
2018-03-29T04:47:25.046Z,10.50
2018-03-29T04:48:27.385Z,10.50
2018-03-29T04:49:29.764Z,10.50
2018-03-29T04:50:32.890Z,10.50
2018-03-29T04:51:34.566Z,10.50
2018-03-29T04:52:36.193Z,10.50
2018-03-29T04:53:37.847Z,10.50
2018-03-29T04:54:39.503Z,10.50
2018-03-29T04:56:23.766Z,10.50
2018-03-29T04:57:25.429Z,10.50
2018-03-29T04:58:27.039Z,10.50
2018-03-29T04:59:28.739Z,10.50
2018-03-29T05:03:50.245Z,10.60
2018-03-29T05:04:51.998Z,10.50
2018-03-29T05:05:53.530Z,10.50
2018-03-29T05:06:55.196Z,10.50
2018-03-29T05:07:56.836Z,10.40
2018-03-29T05:08:58.516Z,10.40
2018-03-29T05:10:00.180Z,10.40
2018-03-29T05:11:01.860Z,10.40
2018-03-29T05:19:13.877Z,10.20
2018-03-29T05:20:15.578Z,10.10
2018-03-29T05:21:17.936Z,10.10
2018-03-29T05:22:19.612Z,10.00
2018-03-29T05:23:22.368Z,10.00
2018-03-29T05:24:23.971Z,10.00
2018-03-29T05:27:38.374Z,10.10
2018-03-29T05:28:39.995Z,10.20
2018-03-29T05:30:12.853Z,10.20
2018-03-29T05:31:14.472Z,10.10
2018-03-29T05:32:16.087Z,10.10
2018-03-29T05:33:18.480Z,10.10
2018-03-29T05:35:25.040Z,10.10
2018-03-29T05:36:28.234Z,10.10
2018-03-29T05:38:33.240Z,10.10
2018-03-29T05:39:35.643Z,10.10
2018-03-29T05:40:38.459Z,10.10
2018-03-29T05:41:40.109Z,10.10
2018-03-29T05:42:42.516Z,10.00
2018-03-29T05:43:44.122Z,10.10
2018-03-29T05:44:45.824Z,10.10
2018-03-29T05:45:48.544Z,10.10
2018-03-29T05:46:50.219Z,10.10
2018-03-29T05:47:52.665Z,10.10
2018-03-29T05:48:54.990Z,10.00
2018-03-29T05:49:57.731Z,10.10
2018-03-29T05:51:35.901Z,10.10
2018-03-29T05:52:38.536Z,10.10
2018-03-29T05:53:40.223Z,10.10
2018-03-29T05:54:41.858Z,10.10
2018-03-29T05:56:46.830Z,10.20
2018-03-29T06:00:40.920Z,10.30
2018-03-29T06:03:12.600Z,10.30
2018-03-29T06:06:04.359Z,10.40
2018-03-29T06:07:06.020Z,10.30
2018-03-29T06:08:07.738Z,10.30
2018-03-29T06:09:09.822Z,10.30
2018-03-29T06:10:11.511Z,10.30
2018-03-29T06:11:13.202Z,10.30
2018-03-29T06:12:14.831Z,10.30
2018-03-29T06:13:16.459Z,10.30
2018-03-29T06:14:18.184Z,10.30
2018-03-29T06:15:19.885Z,10.30
2018-03-29T06:16:21.553Z,10.30
2018-03-29T06:17:25.822Z,10.30
2018-03-29T06:19:59.414Z,10.30
2018-03-29T06:22:04.808Z,10.40
2018-03-29T06:24:27.416Z,10.40
2018-03-29T06:26:48.793Z,10.40
2018-03-29T06:29:07.797Z,10.40
2018-03-29T06:30:09.312Z,10.40
2018-03-29T06:31:10.775Z,10.40
2018-03-29T06:32:12.517Z,10.40
2018-03-29T06:35:27.090Z,10.50
2018-03-29T06:36:28.771Z,10.50
2018-03-29T06:46:28.581Z,10.50
2018-03-29T06:47:30.403Z,10.50
2018-03-29T06:48:32.770Z,10.50
2018-03-29T06:49:34.385Z,10.30
2018-03-29T06:50:35.968Z,10.30
2018-03-29T06:52:24.651Z,10.20
2018-03-29T06:53:27.429Z,10.10
2018-03-29T06:56:25.007Z,10.10
2018-03-29T06:59:04.414Z,10.00
2018-03-29T07:01:25.481Z,10.00
2018-03-29T07:02:28.603Z,10.00
2018-03-29T07:06:12.775Z,10.00
2018-03-29T07:08:08.383Z,10.00
2018-03-29T07:14:28.770Z,9.90
2018-03-29T07:18:08.971Z,10.00
2018-03-29T07:20:14.229Z,10.00
2018-03-29T07:21:15.875Z,10.00
2018-03-29T07:22:17.475Z,9.90
2018-03-29T07:24:23.561Z,9.90
2018-03-29T07:25:25.320Z,10.00
2018-03-29T07:26:27.683Z,9.90
2018-03-29T07:27:30.060Z,9.90
2018-03-29T07:28:32.463Z,10.00
2018-03-29T07:30:57.703Z,10.00
2018-03-29T07:31:59.472Z,10.00
2018-03-29T07:34:22.726Z,10.00
2018-03-29T07:36:42.833Z,10.00
2018-03-29T07:39:55.558Z,10.00
2018-03-29T07:43:45.695Z,10.00
2018-03-29T07:44:47.299Z,10.00
2018-03-29T07:45:48.989Z,10.00
2018-03-29T07:48:36.075Z,10.00
2018-03-29T07:51:12.707Z,10.00
2018-03-29T07:52:14.426Z,10.00
2018-03-29T07:53:17.574Z,10.00
2018-03-29T07:58:23.886Z,10.00
2018-03-29T07:59:25.635Z,10.00
2018-03-29T08:02:11.915Z,10.00
2018-03-29T08:03:13.623Z,10.10
2018-03-29T08:05:19.403Z,10.00
2018-03-29T08:06:21.039Z,10.10
2018-03-29T08:07:22.805Z,10.10
2018-03-29T08:08:24.475Z,10.10
2018-03-29T08:09:27.699Z,10.10
2018-03-29T08:10:29.382Z,10.10
2018-03-29T08:11:32.575Z,10.10
2018-03-29T08:12:34.162Z,10.10
2018-03-29T08:19:28.299Z,10.10
2018-03-29T08:20:30.750Z,10.20
2018-03-29T08:21:32.381Z,10.20
2018-03-29T08:22:49.825Z,10.20
2018-03-29T08:23:52.217Z,10.20
2018-03-29T08:24:53.957Z,10.20
2018-03-29T08:27:50.585Z,10.20
2018-03-29T08:28:52.901Z,10.20
2018-03-29T08:31:14.550Z,10.20
2018-03-29T08:37:27.455Z,10.20
2018-03-29T08:42:06.047Z,10.20
2018-03-29T08:44:11.403Z,10.20
2018-03-29T08:46:03.141Z,10.20
2018-03-29T08:48:49.989Z,10.20
2018-03-29T08:49:51.721Z,10.20
2018-03-29T08:50:53.356Z,10.20
2018-03-29T09:03:55.427Z,10.10
2018-03-29T09:04:57.039Z,10.10
2018-03-29T09:05:58.709Z,10.10
2018-03-29T09:07:01.164Z,10.10
2018-03-29T09:08:02.829Z,10.10
2018-03-29T09:09:05.414Z,10.10
2018-03-29T09:10:08.535Z,10.10
2018-03-29T09:11:10.233Z,10.10
2018-03-29T09:12:47.862Z,10.10
2018-03-29T09:14:42.890Z,10.20
2018-03-29T09:15:44.497Z,10.20
2018-03-29T09:26:21.952Z,10.30
2018-03-29T09:27:23.679Z,10.30
2018-03-29T09:28:25.376Z,10.20
2018-03-29T09:29:53.367Z,10.20
2018-03-29T09:30:55.017Z,10.20
2018-03-29T09:35:23.949Z,10.30
2018-03-29T09:36:25.754Z,10.30
2018-03-29T09:37:28.181Z,10.30
2018-03-29T09:38:29.841Z,10.30
2018-03-29T09:39:32.247Z,10.30
2018-03-29T09:40:34.292Z,10.30
2018-03-29T09:44:48.145Z,10.40
2018-03-29T09:46:21.029Z,10.40
2018-03-29T09:47:23.793Z,10.40
2018-03-29T09:48:25.444Z,10.40
2018-03-29T09:49:27.163Z,10.40
2018-03-29T09:50:28.814Z,10.40
2018-03-29T09:51:30.528Z,10.40
2018-03-29T09:52:32.963Z,10.40
2018-03-29T10:00:16.363Z,10.40
2018-03-29T10:01:20.871Z,10.40
2018-03-29T10:02:23.329Z,10.40
2018-03-29T10:03:25.367Z,10.40
2018-03-29T10:04:28.066Z,10.40
2018-03-29T10:07:00.763Z,10.40
2018-03-29T10:10:41.691Z,10.50
2018-03-29T10:14:17.407Z,10.50
2018-03-29T10:15:19.818Z,10.50
2018-03-29T10:16:22.251Z,10.50
2018-03-29T10:19:55.515Z,10.50
2018-03-29T10:24:06.208Z,10.60
2018-03-29T10:25:07.965Z,10.60
2018-03-29T10:31:07.153Z,10.60
2018-03-29T10:32:08.809Z,10.60
2018-03-29T10:33:10.523Z,10.60
2018-03-29T10:34:12.153Z,10.60
2018-03-29T10:36:33.647Z,10.60
2018-03-29T10:37:35.242Z,10.60
2018-03-29T10:38:38.166Z,10.60
2018-03-29T10:39:39.877Z,10.60
2018-03-29T10:42:04.837Z,10.70
2018-03-29T10:43:07.449Z,10.60
2018-03-29T10:44:09.232Z,10.60
2018-03-29T10:45:12.426Z,10.70
2018-03-29T10:46:14.100Z,10.70
2018-03-29T10:47:15.781Z,10.70
2018-03-29T10:48:56.785Z,10.70
2018-03-29T10:49:58.497Z,10.70
2018-03-29T10:52:03.576Z,10.70
2018-03-29T10:53:05.271Z,10.70
2018-03-29T10:54:07.683Z,10.70
2018-03-29T10:55:09.285Z,10.70
2018-03-29T10:56:10.981Z,10.60
2018-03-29T10:57:13.339Z,10.70
2018-03-29T10:59:06.613Z,10.70
2018-03-29T11:00:08.337Z,10.60
2018-03-29T11:01:09.995Z,10.60
2018-03-29T11:02:11.616Z,10.60
2018-03-29T11:03:13.385Z,10.60
2018-03-29T11:04:16.725Z,10.60
2018-03-29T11:05:18.355Z,10.60
2018-03-29T11:08:51.059Z,10.60
2018-03-29T11:09:52.782Z,10.60
2018-03-29T11:11:44.409Z,10.60
2018-03-29T11:12:47.539Z,10.60
2018-03-29T11:13:49.183Z,10.60
2018-03-29T11:14:52.401Z,10.60
2018-03-29T11:15:54.059Z,10.60
2018-03-29T11:16:55.763Z,10.60
2018-03-29T11:17:57.392Z,10.60
2018-03-29T11:18:59.069Z,10.60
2018-03-29T11:21:41.881Z,10.60
2018-03-29T11:22:43.580Z,10.60
2018-03-29T11:23:45.272Z,10.60
2018-03-29T11:26:05.380Z,10.60
2018-03-29T11:27:07.821Z,10.60
2018-03-29T11:29:53.818Z,10.60
2018-03-29T11:30:55.501Z,10.60
2018-03-29T11:33:53.305Z,10.60
2018-03-29T11:38:24.873Z,10.60
2018-03-29T11:39:26.565Z,10.60
2018-03-29T11:40:28.219Z,10.60
2018-03-29T11:41:29.853Z,10.60
2018-03-29T11:42:57.755Z,10.70
2018-03-29T11:44:00.043Z,10.60
2018-03-29T11:46:04.706Z,10.60
2018-03-29T11:47:06.903Z,10.60
2018-03-29T11:50:58.433Z,10.70
2018-03-29T11:52:37.402Z,10.60
2018-03-29T11:53:39.048Z,10.60
2018-03-29T11:56:53.075Z,10.60
2018-03-29T11:59:50.277Z,10.60
2018-03-29T12:00:52.299Z,10.60
2018-03-29T12:01:55.076Z,10.60
2018-03-29T12:02:57.481Z,10.60
2018-03-29T12:07:03.715Z,10.70
2018-03-29T12:08:05.374Z,10.70
2018-03-29T12:09:08.599Z,10.60
2018-03-29T12:10:10.301Z,10.70
2018-03-29T12:11:11.897Z,10.60
2018-03-29T12:12:13.595Z,10.60
2018-03-29T12:13:15.969Z,10.60
2018-03-29T12:14:56.649Z,10.60
2018-03-29T12:17:02.719Z,10.70
2018-03-29T12:18:04.425Z,10.70
2018-03-29T12:20:09.569Z,10.70
2018-03-29T12:25:35.052Z,10.60
2018-03-29T12:26:37.489Z,10.60
2018-03-29T12:31:19.272Z,10.70
2018-03-29T12:32:20.995Z,10.60
2018-03-29T12:33:22.575Z,10.60
2018-03-29T12:34:24.189Z,10.60
2018-03-29T12:35:25.793Z,10.60
2018-03-29T12:36:27.440Z,10.70
2018-03-29T12:37:29.081Z,10.60
2018-03-29T12:38:30.787Z,10.60
2018-03-29T12:39:33.196Z,10.60
2018-03-29T12:40:34.825Z,10.60
2018-03-29T12:42:53.915Z,10.60
2018-03-29T12:47:20.936Z,10.70
2018-03-29T12:48:22.545Z,10.70
2018-03-29T12:49:47.825Z,10.70
2018-03-29T12:50:49.843Z,10.70
2018-03-29T12:51:52.286Z,10.80
2018-03-29T12:54:04.422Z,10.80
2018-03-29T12:56:05.422Z,10.90
2018-03-29T12:58:26.559Z,10.90
2018-03-29T12:59:28.579Z,10.80
2018-03-29T13:00:30.915Z,10.80
2018-03-29T13:02:49.644Z,10.80
2018-03-29T13:03:52.212Z,10.80
2018-03-29T13:04:54.606Z,10.80
2018-03-29T13:05:57.381Z,10.80
2018-03-29T13:06:59.054Z,10.80
2018-03-29T13:08:00.808Z,10.80
2018-03-29T13:09:02.590Z,10.80
2018-03-29T13:10:05.996Z,10.80
2018-03-29T13:11:07.923Z,10.90
2018-03-29T13:12:09.639Z,10.80
2018-03-29T13:13:11.285Z,10.90
2018-03-29T13:17:02.715Z,11.00
2018-03-29T13:18:04.427Z,11.00
2018-03-29T13:19:07.705Z,11.00
2018-03-29T13:20:09.398Z,11.00
2018-03-29T13:23:34.657Z,11.00
2018-03-29T13:24:37.267Z,11.00
2018-03-29T13:25:38.735Z,11.00
2018-03-29T13:26:40.205Z,11.00
2018-03-29T13:27:42.489Z,11.00
2018-03-29T13:28:44.742Z,11.00
2018-03-29T13:29:47.003Z,10.90
2018-03-29T13:30:48.518Z,11.00
2018-03-29T13:40:19.218Z,11.20
2018-03-29T13:44:32.251Z,11.30
2018-03-29T13:45:33.910Z,11.20
2018-03-29T13:52:25.797Z,11.30
2018-03-29T13:54:30.985Z,11.20
2018-03-29T13:55:33.697Z,11.20
2018-03-29T13:56:35.318Z,11.20
2018-03-29T13:58:48.782Z,11.10
2018-03-29T14:00:53.822Z,11.10
2018-03-29T14:01:55.505Z,11.20
2018-03-29T14:02:57.171Z,11.10
2018-03-29T14:03:58.939Z,11.10
2018-03-29T14:11:29.645Z,11.10
2018-03-29T14:13:35.409Z,11.10
2018-03-29T14:16:36.657Z,11.10
2018-03-29T14:17:38.475Z,11.10
2018-03-29T14:19:44.222Z,11.10
2018-03-29T14:20:45.979Z,11.10
2018-03-29T14:21:48.367Z,11.10
2018-03-29T14:24:44.443Z,11.10
2018-03-29T14:25:47.239Z,11.10
2018-03-29T14:26:48.924Z,11.10
2018-03-29T14:28:53.898Z,11.20
2018-03-29T14:29:55.544Z,11.20
2018-03-29T14:30:57.213Z,11.20
2018-03-29T14:32:00.045Z,11.20
2018-03-29T14:33:01.691Z,11.20
2018-03-29T14:34:03.341Z,11.20
2018-03-29T14:35:05.054Z,11.30
2018-03-29T14:36:06.767Z,11.30
2018-03-29T14:37:08.415Z,11.30
2018-03-29T14:38:10.124Z,11.30
2018-03-29T14:40:15.469Z,11.30
2018-03-29T14:41:17.105Z,11.30
2018-03-29T14:42:20.374Z,11.30
2018-03-29T14:43:22.132Z,11.30
2018-03-29T14:44:23.900Z,11.30
2018-03-29T14:45:25.561Z,11.30
2018-03-29T14:46:27.235Z,11.30
2018-03-29T14:47:55.396Z,11.30
2018-03-29T14:48:57.067Z,11.30
2018-03-29T14:49:58.653Z,11.30
2018-03-29T14:51:00.332Z,11.30
2018-03-29T14:52:01.978Z,11.30
2018-03-29T14:53:04.430Z,11.40
2018-03-29T14:55:09.816Z,11.40
2018-03-29T14:56:11.479Z,11.40
2018-03-29T14:57:13.197Z,11.40
2018-03-29T14:59:33.617Z,11.40
2018-03-29T15:01:39.768Z,11.40
2018-03-29T15:02:41.418Z,11.40
2018-03-29T15:03:43.091Z,11.50
2018-03-29T15:04:44.729Z,11.50
2018-03-29T15:05:46.383Z,11.50
2018-03-29T15:06:48.001Z,11.50
2018-03-29T15:07:49.695Z,11.50
2018-03-29T15:08:52.148Z,11.50
2018-03-29T15:09:53.798Z,11.50
2018-03-29T15:10:55.449Z,11.50
2018-03-29T15:11:57.758Z,11.50
2018-03-29T15:12:59.377Z,11.50
2018-03-29T15:15:04.383Z,11.50
2018-03-29T15:17:09.547Z,11.50
2018-03-29T15:19:28.127Z,11.60
2018-03-29T15:20:29.776Z,11.60
2018-03-29T15:21:31.364Z,11.60
2018-03-29T15:35:58.859Z,11.60
2018-03-29T15:41:49.773Z,11.60
2018-03-29T15:42:52.108Z,11.60
2018-03-29T15:44:58.515Z,11.60
2018-03-29T15:46:00.135Z,11.60
2018-03-29T15:53:33.057Z,11.60
2018-03-29T15:54:34.644Z,11.50
2018-03-29T15:55:36.969Z,11.50
2018-03-29T15:57:43.340Z,11.50
2018-03-29T16:00:52.322Z,11.50
2018-03-29T16:06:08.615Z,11.50
2018-03-29T16:07:10.016Z,11.40
2018-03-29T16:08:11.405Z,11.50
2018-03-29T16:09:14.308Z,11.50
2018-03-29T16:10:15.744Z,11.50
2018-03-29T16:11:17.241Z,11.50
2018-03-29T16:12:18.637Z,11.40
2018-03-29T16:13:20.109Z,11.40
2018-03-29T16:15:24.611Z,11.40
2018-03-29T16:16:26.768Z,11.40
2018-03-29T16:17:29.641Z,11.40
2018-03-29T16:20:37.583Z,11.40
2018-03-29T16:21:39.022Z,11.30
2018-03-29T16:22:40.455Z,11.30
2018-03-29T16:24:44.966Z,11.30
2018-03-29T16:25:46.739Z,11.30
2018-03-29T16:27:51.327Z,11.30
2018-03-29T16:28:52.742Z,11.30
2018-03-29T16:29:56.484Z,11.30
2018-03-29T16:30:59.055Z,11.30
2018-03-29T16:33:05.070Z,11.30
2018-03-29T16:34:06.505Z,11.30
2018-03-29T16:35:08.782Z,11.40
2018-03-29T16:36:10.201Z,11.30
2018-03-29T16:37:11.627Z,11.30
2018-03-29T16:38:13.023Z,11.40
2018-03-29T16:40:17.619Z,11.30
2018-03-29T16:41:20.804Z,11.30
2018-03-29T16:42:23.027Z,11.30
2018-03-29T16:43:24.755Z,11.30
2018-03-29T16:44:26.171Z,11.40
2018-03-29T16:46:30.745Z,11.30
2018-03-29T16:47:32.177Z,11.30
2018-03-29T16:49:36.749Z,11.30
2018-03-29T16:50:38.279Z,11.30
2018-03-29T16:52:43.078Z,11.30
2018-03-29T16:53:44.521Z,11.30
2018-03-29T16:55:49.032Z,11.30
2018-03-29T16:56:50.447Z,11.30
2018-03-29T16:57:51.859Z,11.30
2018-03-29T16:58:53.279Z,11.20
2018-03-29T17:00:57.861Z,11.20
2018-03-29T17:01:59.303Z,11.20
2018-03-29T17:03:00.767Z,11.10
2018-03-29T17:04:02.179Z,11.20
2018-03-29T17:05:03.941Z,11.20
2018-03-29T17:06:06.821Z,11.10
2018-03-29T17:07:08.418Z,11.10
2018-03-29T17:08:09.803Z,11.20
2018-03-29T17:09:11.221Z,11.10
2018-03-29T17:10:13.479Z,11.10
2018-03-29T17:11:14.969Z,11.10
2018-03-29T17:12:17.133Z,11.10
2018-03-29T17:13:18.575Z,11.10
2018-03-29T17:14:19.982Z,11.10
2018-03-29T17:17:27.589Z,11.10
2018-03-29T17:33:37.972Z,10.80
2018-03-29T17:39:37.191Z,10.60
2018-03-29T17:50:00.434Z,10.50
2018-03-29T17:51:03.568Z,10.40
2018-03-29T17:53:09.492Z,10.30
2018-03-29T17:55:51.809Z,10.40
2018-03-29T17:56:53.325Z,10.40
2018-03-29T17:57:55.225Z,10.40
2018-03-29T17:58:56.750Z,10.40
2018-03-29T17:59:59.723Z,10.30
2018-03-29T18:01:56.712Z,10.30
2018-03-29T18:04:01.321Z,10.30
2018-03-29T18:05:03.534Z,10.30
2018-03-29T18:09:12.205Z,10.20
2018-03-29T18:10:13.737Z,10.20
2018-03-29T18:12:18.385Z,10.20
2018-03-29T18:13:20.884Z,10.10
2018-03-29T18:14:22.377Z,10.10
2018-03-29T18:15:24.912Z,10.10
2018-03-29T18:17:29.526Z,10.10
2018-03-29T18:19:34.157Z,14.50
2018-03-29T18:20:35.610Z,10.00
2018-03-29T18:21:37.838Z,10.00
2018-03-29T18:22:39.269Z,10.00
2018-03-29T18:26:40.358Z,10.00
2018-03-29T18:27:41.788Z,11.00
2018-03-29T18:28:43.250Z,10.00
2018-03-29T18:31:31.878Z,10.00
2018-03-29T18:33:36.869Z,10.00
2018-03-29T18:34:38.326Z,10.00
2018-03-29T18:35:39.769Z,10.00
2018-03-29T18:37:44.323Z,9.90
2018-03-29T18:38:47.241Z,9.90
2018-03-29T18:39:48.697Z,9.90
2018-03-29T18:40:50.157Z,9.90
2018-03-29T18:43:38.765Z,9.90
2018-03-29T18:44:40.237Z,9.90
2018-03-29T18:45:41.710Z,9.90
2018-03-29T18:46:43.192Z,9.90
2018-03-29T18:48:48.461Z,9.90
2018-03-29T18:50:54.543Z,9.80
2018-03-29T18:52:59.088Z,9.90
2018-03-29T18:54:01.662Z,9.80
2018-03-29T18:55:03.098Z,9.90
2018-03-29T18:57:08.880Z,9.90
2018-03-29T18:58:10.387Z,9.90
2018-03-29T18:59:11.838Z,9.80
2018-03-29T19:00:13.330Z,9.80
2018-03-29T19:01:15.548Z,9.80
2018-03-29T19:02:17.016Z,9.80
2018-03-29T19:03:18.474Z,9.90
2018-03-29T19:04:22.329Z,9.80
2018-03-29T19:05:24.497Z,9.80
2018-03-29T19:06:25.957Z,9.80
2018-03-29T19:07:27.429Z,9.80
2018-03-29T19:08:28.870Z,9.90
2018-03-29T19:09:30.345Z,9.80
2018-03-29T19:10:31.814Z,9.90
2018-03-29T19:11:33.274Z,9.80
2018-03-29T19:12:35.447Z,9.80
2018-03-29T19:14:40.124Z,8.10
2018-03-29T19:15:41.601Z,9.80
2018-03-29T19:16:43.054Z,9.80
2018-03-29T19:17:44.498Z,9.80
2018-03-29T19:18:45.927Z,9.80
2018-03-29T19:19:47.350Z,9.80
2018-03-29T19:20:48.793Z,9.80
2018-03-29T19:21:50.287Z,9.80
2018-03-29T19:22:51.700Z,9.80
2018-03-29T19:23:53.097Z,9.80
2018-03-29T19:24:54.570Z,9.80
2018-03-29T19:25:56.056Z,9.80
2018-03-29T19:26:58.271Z,9.80
2018-03-29T19:28:00.434Z,9.80
2018-03-29T19:29:01.893Z,9.80